sensor_id;sensor_type;location;lat;lon;timestamp;P1;durP1;ratioP1;P2;durP2;ratioP2
3881;SDS011;1956;53.482;10.238;2023-09-19T00:03:27;3.33;;;1.87;;
3881;SDS011;1956;53.482;10.238;2023-09-19T00:08:28;1.67;;;1.50;;
3881;SDS011;1956;53.482;10.238;2023-09-19T00:13:28;1.40;;;1.30;;
3881;SDS011;1956;53.482;10.238;2023-09-19T00:18:30;4.07;;;1.90;;
3881;SDS011;1956;53.482;10.238;2023-09-19T00:23:32;2.60;;;1.07;;
3881;SDS011;1956;53.482;10.238;2023-09-19T00:28:33;2.83;;;1.40;;
3881;SDS011;1956;53.482;10.238;2023-09-19T00:33:33;3.83;;;1.70;;
3881;SDS011;1956;53.482;10.238;2023-09-19T00:38:34;2.07;;;1.90;;
3881;SDS011;1956;53.482;10.238;2023-09-19T00:43:34;4.27;;;1.60;;
3881;SDS011;1956;53.482;10.238;2023-09-19T00:48:39;3.13;;;1.70;;
3881;SDS011;1956;53.482;10.238;2023-09-19T00:53:40;4.13;;;1.73;;
3881;SDS011;1956;53.482;10.238;2023-09-19T00:58:46;2.07;;;1.77;;
3881;SDS011;1956;53.482;10.238;2023-09-19T01:03:46;2.75;;;2.10;;
3881;SDS011;1956;53.482;10.238;2023-09-19T01:08:46;7.13;;;2.50;;
3881;SDS011;1956;53.482;10.238;2023-09-19T01:14:34;8.97;;;2.10;;
3881;SDS011;1956;53.482;10.238;2023-09-19T01:19:14;1.97;;;1.87;;
3881;SDS011;1956;53.482;10.238;2023-09-19T01:29:50;4.73;;;3.17;;
3881;SDS011;1956;53.482;10.238;2023-09-19T01:34:51;3.13;;;2.80;;
3881;SDS011;1956;53.482;10.238;2023-09-19T01:39:57;14.23;;;3.00;;
3881;SDS011;1956;53.482;10.238;2023-09-19T01:45:01;5.90;;;3.20;;
3881;SDS011;1956;53.482;10.238;2023-09-19T01:50:12;7.73;;;3.73;;
3881;SDS011;1956;53.482;10.238;2023-09-19T01:55:13;18.30;;;3.20;;
3881;SDS011;1956;53.482;10.238;2023-09-19T02:00:17;4.30;;;2.87;;
3881;SDS011;1956;53.482;10.238;2023-09-19T02:05:24;7.47;;;2.67;;
3881;SDS011;1956;53.482;10.238;2023-09-19T02:10:25;2.27;;;2.07;;
3881;SDS011;1956;53.482;10.238;2023-09-19T02:15:25;6.30;;;1.97;;
3881;SDS011;1956;53.482;10.238;2023-09-19T02:20:25;10.70;;;2.53;;
3881;SDS011;1956;53.482;10.238;2023-09-19T02:25:26;5.57;;;2.50;;
3881;SDS011;1956;53.482;10.238;2023-09-19T02:30:27;5.63;;;3.00;;
3881;SDS011;1956;53.482;10.238;2023-09-19T02:35:28;3.80;;;2.93;;
3881;SDS011;1956;53.482;10.238;2023-09-19T02:40:28;8.37;;;3.27;;
3881;SDS011;1956;53.482;10.238;2023-09-19T02:45:29;3.93;;;2.80;;
3881;SDS011;1956;53.482;10.238;2023-09-19T02:50:30;4.00;;;3.00;;
3881;SDS011;1956;53.482;10.238;2023-09-19T02:55:30;10.68;;;2.90;;
3881;SDS011;1956;53.482;10.238;2023-09-19T03:00:32;7.73;;;2.90;;
3881;SDS011;1956;53.482;10.238;2023-09-19T03:05:34;6.03;;;2.70;;
3881;SDS011;1956;53.482;10.238;2023-09-19T03:10:34;2.17;;;2.03;;
3881;SDS011;1956;53.482;10.238;2023-09-19T03:15:40;3.30;;;2.80;;
3881;SDS011;1956;53.482;10.238;2023-09-19T03:20:40;5.90;;;3.03;;
3881;SDS011;1956;53.482;10.238;2023-09-19T03:25:41;9.13;;;2.70;;
3881;SDS011;1956;53.482;10.238;2023-09-19T03:30:41;3.10;;;2.77;;
3881;SDS011;1956;53.482;10.238;2023-09-19T03:35:42;3.27;;;2.40;;
3881;SDS011;1956;53.482;10.238;2023-09-19T04:01:24;3.27;;;1.97;;
3881;SDS011;1956;53.482;10.238;2023-09-19T04:06:24;3.27;;;2.13;;
3881;SDS011;1956;53.482;10.238;2023-09-19T04:11:25;8.63;;;1.87;;
3881;SDS011;1956;53.482;10.238;2023-09-19T04:16:25;3.13;;;1.10;;
3881;SDS011;1956;53.482;10.238;2023-09-19T04:21:25;4.43;;;1.27;;
3881;SDS011;1956;53.482;10.238;2023-09-19T04:26:26;7.53;;;1.30;;
3881;SDS011;1956;53.482;10.238;2023-09-19T04:31:27;1.92;;;1.00;;
3881;SDS011;1956;53.482;10.238;2023-09-19T04:36:27;4.00;;;1.37;;
3881;SDS011;1956;53.482;10.238;2023-09-19T04:41:28;3.77;;;1.23;;
3881;SDS011;1956;53.482;10.238;2023-09-19T04:46:28;2.97;;;1.00;;
3881;SDS011;1956;53.482;10.238;2023-09-19T04:51:28;11.17;;;1.20;;
3881;SDS011;1956;53.482;10.238;2023-09-19T04:56:34;3.27;;;1.60;;
3881;SDS011;1956;53.482;10.238;2023-09-19T05:01:34;3.63;;;1.63;;
3881;SDS011;1956;53.482;10.238;2023-09-19T05:06:34;5.50;;;1.27;;
3881;SDS011;1956;53.482;10.238;2023-09-19T05:11:35;3.30;;;1.10;;
3881;SDS011;1956;53.482;10.238;2023-09-19T05:16:38;7.13;;;1.50;;
3881;SDS011;1956;53.482;10.238;2023-09-19T05:21:38;4.63;;;0.97;;
3881;SDS011;1956;53.482;10.238;2023-09-19T05:26:41;5.17;;;1.33;;
3881;SDS011;1956;53.482;10.238;2023-09-19T05:31:41;6.20;;;1.37;;
3881;SDS011;1956;53.482;10.238;2023-09-19T05:36:43;3.07;;;1.13;;
3881;SDS011;1956;53.482;10.238;2023-09-19T05:41:43;3.83;;;1.60;;
3881;SDS011;1956;53.482;10.238;2023-09-19T05:46:43;5.03;;;0.93;;
3881;SDS011;1956;53.482;10.238;2023-09-19T05:51:45;2.00;;;0.93;;
3881;SDS011;1956;53.482;10.238;2023-09-19T05:56:47;1.30;;;1.00;;
3881;SDS011;1956;53.482;10.238;2023-09-19T06:01:47;2.93;;;1.50;;
3881;SDS011;1956;53.482;10.238;2023-09-19T06:06:47;3.05;;;1.70;;
3881;SDS011;1956;53.482;10.238;2023-09-19T06:11:48;7.40;;;1.43;;
3881;SDS011;1956;53.482;10.238;2023-09-19T06:16:48;6.23;;;1.90;;
3881;SDS011;1956;53.482;10.238;2023-09-19T06:21:49;5.33;;;1.57;;
3881;SDS011;1956;53.482;10.238;2023-09-19T06:26:49;5.70;;;1.43;;
3881;SDS011;1956;53.482;10.238;2023-09-19T06:31:49;7.38;;;1.65;;
3881;SDS011;1956;53.482;10.238;2023-09-19T06:36:51;15.87;;;1.60;;
3881;SDS011;1956;53.482;10.238;2023-09-19T06:41:52;4.93;;;1.50;;
3881;SDS011;1956;53.482;10.238;2023-09-19T06:46:53;5.70;;;1.40;;
3881;SDS011;1956;53.482;10.238;2023-09-19T06:51:55;11.37;;;1.70;;
3881;SDS011;1956;53.482;10.238;2023-09-19T06:56:55;4.90;;;1.90;;
3881;SDS011;1956;53.482;10.238;2023-09-19T07:01:55;8.03;;;1.13;;
3881;SDS011;1956;53.482;10.238;2023-09-19T07:06:55;4.77;;;2.13;;
3881;SDS011;1956;53.482;10.238;2023-09-19T07:11:56;14.77;;;2.43;;
3881;SDS011;1956;53.482;10.238;2023-09-19T07:16:56;5.90;;;2.10;;
3881;SDS011;1956;53.482;10.238;2023-09-19T07:21:57;4.13;;;1.83;;
3881;SDS011;1956;53.482;10.238;2023-09-19T07:26:59;7.20;;;2.40;;
3881;SDS011;1956;53.482;10.238;2023-09-19T07:31:59;2.43;;;1.40;;
3881;SDS011;1956;53.482;10.238;2023-09-19T07:36:59;5.23;;;3.43;;
3881;SDS011;1956;53.482;10.238;2023-09-19T07:41:59;6.10;;;2.30;;
3881;SDS011;1956;53.482;10.238;2023-09-19T07:47:00;12.00;;;2.33;;
3881;SDS011;1956;53.482;10.238;2023-09-19T07:52:03;9.07;;;2.20;;
3881;SDS011;1956;53.482;10.238;2023-09-19T07:57:04;7.27;;;1.80;;
3881;SDS011;1956;53.482;10.238;2023-09-19T08:02:04;11.77;;;2.33;;
3881;SDS011;1956;53.482;10.238;2023-09-19T08:07:05;4.30;;;1.57;;
3881;SDS011;1956;53.482;10.238;2023-09-19T08:12:06;5.70;;;1.67;;
3881;SDS011;1956;53.482;10.238;2023-09-19T08:17:08;8.50;;;2.20;;
3881;SDS011;1956;53.482;10.238;2023-09-19T08:22:08;6.03;;;2.20;;
3881;SDS011;1956;53.482;10.238;2023-09-19T08:27:10;8.47;;;2.00;;
3881;SDS011;1956;53.482;10.238;2023-09-19T08:32:12;6.67;;;2.10;;
3881;SDS011;1956;53.482;10.238;2023-09-19T08:37:12;13.38;;;2.97;;
3881;SDS011;1956;53.482;10.238;2023-09-19T08:42:12;8.23;;;1.70;;
3881;SDS011;1956;53.482;10.238;2023-09-19T08:47:14;10.83;;;2.50;;
3881;SDS011;1956;53.482;10.238;2023-09-19T08:52:27;14.03;;;2.80;;
3881;SDS011;1956;53.482;10.238;2023-09-19T08:57:28;13.47;;;2.87;;
3881;SDS011;1956;53.482;10.238;2023-09-19T09:02:29;8.23;;;1.80;;
3881;SDS011;1956;53.482;10.238;2023-09-19T09:07:31;5.87;;;1.63;;
3881;SDS011;1956;53.482;10.238;2023-09-19T09:12:34;10.80;;;1.87;;
3881;SDS011;1956;53.482;10.238;2023-09-19T09:17:36;6.37;;;2.20;;
3881;SDS011;1956;53.482;10.238;2023-09-19T09:22:37;5.03;;;1.83;;
3881;SDS011;1956;53.482;10.238;2023-09-19T09:27:40;4.73;;;2.00;;
3881;SDS011;1956;53.482;10.238;2023-09-19T09:32:40;4.73;;;1.50;;
3881;SDS011;1956;53.482;10.238;2023-09-19T09:37:41;5.03;;;1.80;;
3881;SDS011;1956;53.482;10.238;2023-09-19T09:42:43;7.03;;;1.37;;
3881;SDS011;1956;53.482;10.238;2023-09-19T09:47:47;9.43;;;1.37;;
3881;SDS011;1956;53.482;10.238;2023-09-19T09:52:57;5.77;;;2.13;;
3881;SDS011;1956;53.482;10.238;2023-09-19T09:58:16;10.63;;;2.27;;
3881;SDS011;1956;53.482;10.238;2023-09-19T10:03:20;10.10;;;1.80;;
3881;SDS011;1956;53.482;10.238;2023-09-19T10:08:21;2.30;;;1.23;;
3881;SDS011;1956;53.482;10.238;2023-09-19T10:13:22;12.43;;;1.67;;
3881;SDS011;1956;53.482;10.238;2023-09-19T10:18:27;6.03;;;1.33;;
3881;SDS011;1956;53.482;10.238;2023-09-19T10:23:30;2.23;;;1.27;;
3881;SDS011;1956;53.482;10.238;2023-09-19T10:28:34;8.30;;;1.50;;
3881;SDS011;1956;53.482;10.238;2023-09-19T10:33:35;7.43;;;1.80;;
3881;SDS011;1956;53.482;10.238;2023-09-19T10:38:37;5.90;;;1.70;;
3881;SDS011;1956;53.482;10.238;2023-09-19T10:43:40;5.27;;;1.40;;
3881;SDS011;1956;53.482;10.238;2023-09-19T10:48:44;5.17;;;1.60;;
3881;SDS011;1956;53.482;10.238;2023-09-19T10:53:50;3.63;;;1.00;;
3881;SDS011;1956;53.482;10.238;2023-09-19T10:58:51;6.40;;;1.80;;
3881;SDS011;1956;53.482;10.238;2023-09-19T11:03:52;8.57;;;1.93;;
3881;SDS011;1956;53.482;10.238;2023-09-19T11:09:12;10.80;;;1.80;;
3881;SDS011;1956;53.482;10.238;2023-09-19T11:24:53;5.17;;;1.17;;
3881;SDS011;1956;53.482;10.238;2023-09-19T11:30:25;11.40;;;1.57;;
3881;SDS011;1956;53.482;10.238;2023-09-19T11:35:26;3.00;;;1.60;;
3881;SDS011;1956;53.482;10.238;2023-09-19T11:40:45;2.77;;;1.60;;
3881;SDS011;1956;53.482;10.238;2023-09-19T11:46:04;9.77;;;2.20;;
3881;SDS011;1956;53.482;10.238;2023-09-19T11:51:11;10.30;;;1.60;;
3881;SDS011;1956;53.482;10.238;2023-09-19T11:56:23;9.70;;;2.00;;
3881;SDS011;1956;53.482;10.238;2023-09-19T12:01:25;5.53;;;1.30;;
3881;SDS011;1956;53.482;10.238;2023-09-19T12:06:29;1.97;;;1.10;;
3881;SDS011;1956;53.482;10.238;2023-09-19T12:11:41;3.20;;;1.23;;
3881;SDS011;1956;53.482;10.238;2023-09-19T12:16:43;6.70;;;1.47;;
3881;SDS011;1956;53.482;10.238;2023-09-19T12:21:59;6.63;;;1.53;;
3881;SDS011;1956;53.482;10.238;2023-09-19T12:27:00;16.63;;;2.43;;
3881;SDS011;1956;53.482;10.238;2023-09-19T12:32:01;3.30;;;1.90;;
3881;SDS011;1956;53.482;10.238;2023-09-19T12:37:13;9.53;;;2.13;;
3881;SDS011;1956;53.482;10.238;2023-09-19T12:42:27;11.93;;;1.40;;
3881;SDS011;1956;53.482;10.238;2023-09-19T12:47:35;4.10;;;1.50;;
3881;SDS011;1956;53.482;10.238;2023-09-19T12:52:39;3.63;;;1.60;;
3881;SDS011;1956;53.482;10.238;2023-09-19T12:57:39;11.10;;;2.03;;
3881;SDS011;1956;53.482;10.238;2023-09-19T13:03:08;5.67;;;1.93;;
3881;SDS011;1956;53.482;10.238;2023-09-19T13:08:04;12.83;;;1.93;;
3881;SDS011;1956;53.482;10.238;2023-09-19T13:13:24;4.97;;;1.43;;
3881;SDS011;1956;53.482;10.238;2023-09-19T13:18:28;6.33;;;2.10;;
3881;SDS011;1956;53.482;10.238;2023-09-19T13:23:29;4.33;;;2.00;;
3881;SDS011;1956;53.482;10.238;2023-09-19T13:28:31;6.53;;;1.40;;
3881;SDS011;1956;53.482;10.238;2023-09-19T13:33:31;8.90;;;1.70;;
3881;SDS011;1956;53.482;10.238;2023-09-19T13:38:31;8.50;;;2.30;;
3881;SDS011;1956;53.482;10.238;2023-09-19T13:43:32;9.50;;;2.20;;
3881;SDS011;1956;53.482;10.238;2023-09-19T13:48:33;9.63;;;2.03;;
3881;SDS011;1956;53.482;10.238;2023-09-19T13:53:35;3.90;;;1.43;;
3881;SDS011;1956;53.482;10.238;2023-09-19T13:58:35;5.57;;;1.30;;
3881;SDS011;1956;53.482;10.238;2023-09-19T14:03:35;5.97;;;1.50;;
3881;SDS011;1956;53.482;10.238;2023-09-19T14:08:36;4.27;;;1.43;;
3881;SDS011;1956;53.482;10.238;2023-09-19T14:13:36;5.57;;;1.90;;
3881;SDS011;1956;53.482;10.238;2023-09-19T14:18:37;4.33;;;1.63;;
3881;SDS011;1956;53.482;10.238;2023-09-19T14:23:37;7.67;;;1.83;;
3881;SDS011;1956;53.482;10.238;2023-09-19T14:28:38;6.40;;;2.17;;
3881;SDS011;1956;53.482;10.238;2023-09-19T14:33:38;8.40;;;2.07;;
3881;SDS011;1956;53.482;10.238;2023-09-19T14:38:39;7.87;;;2.10;;
3881;SDS011;1956;53.482;10.238;2023-09-19T14:43:39;4.33;;;1.60;;
3881;SDS011;1956;53.482;10.238;2023-09-19T14:48:39;11.17;;;2.00;;
3881;SDS011;1956;53.482;10.238;2023-09-19T14:53:40;3.90;;;1.50;;
3881;SDS011;1956;53.482;10.238;2023-09-19T14:58:41;2.20;;;1.97;;
3881;SDS011;1956;53.482;10.238;2023-09-19T15:03:42;4.77;;;1.70;;
3881;SDS011;1956;53.482;10.238;2023-09-19T15:08:43;7.80;;;1.37;;
3881;SDS011;1956;53.482;10.238;2023-09-19T15:13:47;4.63;;;2.17;;
3881;SDS011;1956;53.482;10.238;2023-09-19T15:18:47;5.67;;;1.77;;
3881;SDS011;1956;53.482;10.238;2023-09-19T15:23:48;7.00;;;2.10;;
3881;SDS011;1956;53.482;10.238;2023-09-19T15:28:48;5.90;;;1.90;;
3881;SDS011;1956;53.482;10.238;2023-09-19T15:33:49;8.00;;;2.30;;
3881;SDS011;1956;53.482;10.238;2023-09-19T15:39:02;3.10;;;1.57;;
3881;SDS011;1956;53.482;10.238;2023-09-19T15:44:03;9.70;;;2.37;;
3881;SDS011;1956;53.482;10.238;2023-09-19T15:49:04;8.13;;;1.83;;
3881;SDS011;1956;53.482;10.238;2023-09-19T15:54:08;6.33;;;1.93;;
3881;SDS011;1956;53.482;10.238;2023-09-19T15:59:08;4.10;;;1.20;;
3881;SDS011;1956;53.482;10.238;2023-09-19T16:04:10;7.53;;;2.00;;
3881;SDS011;1956;53.482;10.238;2023-09-19T16:09:10;4.10;;;1.63;;
3881;SDS011;1956;53.482;10.238;2023-09-19T16:14:10;5.77;;;2.40;;
3881;SDS011;1956;53.482;10.238;2023-09-19T16:19:11;10.67;;;1.80;;
3881;SDS011;1956;53.482;10.238;2023-09-19T16:24:11;4.80;;;1.57;;
3881;SDS011;1956;53.482;10.238;2023-09-19T16:29:11;8.93;;;1.90;;
3881;SDS011;1956;53.482;10.238;2023-09-19T16:34:12;6.63;;;1.87;;
3881;SDS011;1956;53.482;10.238;2023-09-19T16:39:13;9.23;;;2.47;;
3881;SDS011;1956;53.482;10.238;2023-09-19T16:44:13;2.97;;;1.43;;
3881;SDS011;1956;53.482;10.238;2023-09-19T16:49:14;6.03;;;1.90;;
3881;SDS011;1956;53.482;10.238;2023-09-19T16:54:14;4.80;;;1.40;;
3881;SDS011;1956;53.482;10.238;2023-09-19T16:59:15;5.07;;;1.90;;
3881;SDS011;1956;53.482;10.238;2023-09-19T17:04:15;6.97;;;1.90;;
3881;SDS011;1956;53.482;10.238;2023-09-19T17:09:16;7.10;;;1.80;;
3881;SDS011;1956;53.482;10.238;2023-09-19T17:14:18;7.50;;;1.80;;
3881;SDS011;1956;53.482;10.238;2023-09-19T17:19:18;5.50;;;1.40;;
3881;SDS011;1956;53.482;10.238;2023-09-19T17:24:22;5.70;;;1.80;;
3881;SDS011;1956;53.482;10.238;2023-09-19T17:29:22;2.30;;;1.50;;
3881;SDS011;1956;53.482;10.238;2023-09-19T17:34:22;3.60;;;1.63;;
3881;SDS011;1956;53.482;10.238;2023-09-19T17:39:23;6.83;;;1.50;;
3881;SDS011;1956;53.482;10.238;2023-09-19T17:44:24;4.57;;;1.47;;
3881;SDS011;1956;53.482;10.238;2023-09-19T17:49:24;7.80;;;1.60;;
3881;SDS011;1956;53.482;10.238;2023-09-19T17:54:24;5.53;;;1.70;;
3881;SDS011;1956;53.482;10.238;2023-09-19T17:59:25;6.83;;;1.50;;
3881;SDS011;1956;53.482;10.238;2023-09-19T18:04:25;3.43;;;1.10;;
3881;SDS011;1956;53.482;10.238;2023-09-19T18:09:26;4.50;;;1.70;;
3881;SDS011;1956;53.482;10.238;2023-09-19T18:14:26;2.37;;;1.03;;
3881;SDS011;1956;53.482;10.238;2023-09-19T18:19:32;8.93;;;1.30;;
3881;SDS011;1956;53.482;10.238;2023-09-19T18:24:32;2.97;;;1.10;;
3881;SDS011;1956;53.482;10.238;2023-09-19T18:29:32;3.30;;;1.17;;
3881;SDS011;1956;53.482;10.238;2023-09-19T18:34:33;2.93;;;1.10;;
3881;SDS011;1956;53.482;10.238;2023-09-19T18:39:33;4.45;;;1.42;;
3881;SDS011;1956;53.482;10.238;2023-09-19T18:44:34;8.03;;;1.23;;
3881;SDS011;1956;53.482;10.238;2023-09-19T18:49:34;7.13;;;1.70;;
3881;SDS011;1956;53.482;10.238;2023-09-19T18:54:34;1.00;;;0.70;;
3881;SDS011;1956;53.482;10.238;2023-09-19T18:59:36;1.93;;;1.57;;
3881;SDS011;1956;53.482;10.238;2023-09-19T19:04:37;1.83;;;1.30;;
3881;SDS011;1956;53.482;10.238;2023-09-19T19:09:39;4.63;;;1.40;;
3881;SDS011;1956;53.482;10.238;2023-09-19T19:14:40;6.33;;;1.30;;
3881;SDS011;1956;53.482;10.238;2023-09-19T19:19:43;3.43;;;1.07;;
3881;SDS011;1956;53.482;10.238;2023-09-19T19:24:44;5.10;;;1.13;;
3881;SDS011;1956;53.482;10.238;2023-09-19T19:29:44;4.40;;;1.17;;
3881;SDS011;1956;53.482;10.238;2023-09-19T19:34:44;5.45;;;1.70;;
3881;SDS011;1956;53.482;10.238;2023-09-19T19:39:45;0.73;;;0.73;;
3881;SDS011;1956;53.482;10.238;2023-09-19T19:44:45;5.53;;;1.40;;
3881;SDS011;1956;53.482;10.238;2023-09-19T19:49:46;3.90;;;0.83;;
3881;SDS011;1956;53.482;10.238;2023-09-19T19:54:47;8.03;;;1.67;;
3881;SDS011;1956;53.482;10.238;2023-09-19T19:59:49;1.70;;;1.07;;
3881;SDS011;1956;53.482;10.238;2023-09-19T20:04:49;4.43;;;1.33;;
3881;SDS011;1956;53.482;10.238;2023-09-19T20:09:50;2.93;;;0.97;;
3881;SDS011;1956;53.482;10.238;2023-09-19T20:14:50;3.13;;;0.97;;
3881;SDS011;1956;53.482;10.238;2023-09-19T20:19:50;0.80;;;0.80;;
3881;SDS011;1956;53.482;10.238;2023-09-19T20:24:52;7.53;;;1.07;;
3881;SDS011;1956;53.482;10.238;2023-09-19T20:29:52;1.83;;;1.07;;
3881;SDS011;1956;53.482;10.238;2023-09-19T20:34:53;4.93;;;1.00;;
3881;SDS011;1956;53.482;10.238;2023-09-19T20:39:54;2.93;;;0.60;;
3881;SDS011;1956;53.482;10.238;2023-09-19T20:44:54;1.85;;;0.88;;
3881;SDS011;1956;53.482;10.238;2023-09-19T20:49:56;10.10;;;1.47;;
3881;SDS011;1956;53.482;10.238;2023-09-19T20:54:57;1.77;;;0.83;;
3881;SDS011;1956;53.482;10.238;2023-09-19T20:59:57;3.47;;;1.23;;
3881;SDS011;1956;53.482;10.238;2023-09-19T21:04:57;2.40;;;1.53;;
3881;SDS011;1956;53.482;10.238;2023-09-19T21:09:58;3.07;;;0.93;;
3881;SDS011;1956;53.482;10.238;2023-09-19T21:14:59;2.23;;;0.80;;
3881;SDS011;1956;53.482;10.238;2023-09-19T21:20:01;3.50;;;1.07;;
3881;SDS011;1956;53.482;10.238;2023-09-19T21:25:01;1.90;;;0.83;;
3881;SDS011;1956;53.482;10.238;2023-09-19T21:30:01;4.80;;;1.30;;
3881;SDS011;1956;53.482;10.238;2023-09-19T21:35:01;1.37;;;1.27;;
3881;SDS011;1956;53.482;10.238;2023-09-19T21:40:05;3.30;;;1.00;;
3881;SDS011;1956;53.482;10.238;2023-09-19T21:45:06;2.70;;;1.13;;
3881;SDS011;1956;53.482;10.238;2023-09-19T21:50:07;1.47;;;1.10;;
3881;SDS011;1956;53.482;10.238;2023-09-19T21:55:08;4.97;;;1.13;;
3881;SDS011;1956;53.482;10.238;2023-09-19T22:00:08;1.43;;;0.70;;
3881;SDS011;1956;53.482;10.238;2023-09-19T22:05:23;3.70;;;0.90;;
3881;SDS011;1956;53.482;10.238;2023-09-19T22:10:23;4.57;;;1.17;;
3881;SDS011;1956;53.482;10.238;2023-09-19T22:15:24;2.27;;;1.10;;
3881;SDS011;1956;53.482;10.238;2023-09-19T22:20:24;5.47;;;1.27;;
3881;SDS011;1956;53.482;10.238;2023-09-19T22:25:29;11.93;;;1.27;;
3881;SDS011;1956;53.482;10.238;2023-09-19T22:30:37;4.40;;;1.10;;
3881;SDS011;1956;53.482;10.238;2023-09-19T22:35:47;5.63;;;1.10;;
3881;SDS011;1956;53.482;10.238;2023-09-19T22:40:48;5.70;;;1.47;;
3881;SDS011;1956;53.482;10.238;2023-09-19T22:45:54;7.60;;;1.50;;
3881;SDS011;1956;53.482;10.238;2023-09-19T22:50:54;5.77;;;1.40;;
3881;SDS011;1956;53.482;10.238;2023-09-19T22:56:02;3.17;;;1.20;;
3881;SDS011;1956;53.482;10.238;2023-09-19T23:01:13;3.70;;;1.00;;
3881;SDS011;1956;53.482;10.238;2023-09-19T23:06:32;2.50;;;1.20;;
3881;SDS011;1956;53.482;10.238;2023-09-19T23:11:35;6.10;;;1.40;;
3881;SDS011;1956;53.482;10.238;2023-09-19T23:16:35;1.37;;;0.90;;
3881;SDS011;1956;53.482;10.238;2023-09-19T23:21:36;3.50;;;1.13;;
3881;SDS011;1956;53.482;10.238;2023-09-19T23:26:42;2.40;;;1.53;;
3881;SDS011;1956;53.482;10.238;2023-09-19T23:31:46;4.00;;;1.40;;
3881;SDS011;1956;53.482;10.238;2023-09-19T23:36:46;2.50;;;0.83;;
3881;SDS011;1956;53.482;10.238;2023-09-19T23:41:46;3.70;;;1.40;;
3881;SDS011;1956;53.482;10.238;2023-09-19T23:46:47;2.63;;;1.20;;
3881;SDS011;1956;53.482;10.238;2023-09-19T23:51:54;3.63;;;1.17;;
3881;SDS011;1956;53.482;10.238;2023-09-19T23:56:56;12.20;;;1.13;;
